Time;durP1;ratioP1;P1;durP2;ratioP2;P2;SDS_P1;SDS_P2;PMS_P1;PMS_P2;Temp;Humidity;BMP_temperature;BMP_pressure;BME280_temperature;BME280_humidity;BME280_pressure;Samples;Min_cycle;Max_cycle;Signal;HPM_P1;HPM_P2
2021/12/30 00:03:12;;;;;;;1.13;1.10;;;;;;;12.42;74.67;97481.34;8441837;28;20230;-77
2021/12/30 00:07:17;;;;;;;1.23;1.17;;;;;;;12.35;75.01;97487.81;8450976;28;20230;-77
2021/12/30 00:11:20;;;;;;;1.60;1.50;;;;;;;12.32;75.56;97486.25;8450840;28;20230;-78
2021/12/30 00:15:23;;;;;;;1.80;1.20;;;;;;;12.43;75.22;97492.56;8450935;28;20238;-79
2021/12/30 00:19:26;;;;;;;1.40;1.30;;;;;;;12.55;75.05;97491.84;8450391;28;20234;-77
2021/12/30 00:23:31;;;;;;;1.40;1.30;;;;;;;12.47;75.35;97507.03;8450701;28;20226;-79
2021/12/30 00:27:33;;;;;;;1.40;1.30;;;;;;;12.73;75.08;97525.44;8450355;28;20234;-78
2021/12/30 00:31:36;;;;;;;1.60;1.50;;;;;;;12.60;75.76;97527.91;8450115;28;20234;-78
2021/12/30 00:35:40;;;;;;;1.23;1.20;;;;;;;12.64;75.74;97539.78;8449986;28;20533;-77
2021/12/30 00:39:44;;;;;;;1.50;1.40;;;;;;;12.58;75.85;97547.97;8449608;28;20237;-75
2021/12/30 00:43:48;;;;;;;1.40;1.30;;;;;;;12.58;76.00;97547.97;8449658;28;20241;-76
2021/12/30 00:47:51;;;;;;;2.40;1.70;;;;;;;12.59;76.34;97557.44;8449319;28;20245;-77
2021/12/30 00:51:54;;;;;;;1.50;1.40;;;;;;;12.54;76.68;97549.91;8449335;28;20234;-78
2021/12/30 00:55:59;;;;;;;1.77;1.50;;;;;;;12.64;76.44;97552.78;8442202;28;20238;-78
2021/12/30 01:00:03;;;;;;;3.00;1.47;;;;;;;12.61;76.30;97559.00;8415874;28;20284;-77
2021/12/30 01:04:06;;;;;;;1.63;1.27;;;;;;;12.76;75.48;97561.63;8448257;28;20240;-78
2021/12/30 01:08:09;;;;;;;2.70;1.50;;;;;;;12.72;75.77;97573.97;8448510;28;20226;-77
2021/12/30 01:12:14;;;;;;;1.20;1.10;;;;;;;12.73;76.32;97575.63;8448296;28;20234;-78
2021/12/30 01:16:18;;;;;;;1.30;1.17;;;;;;;12.78;76.29;97583.16;8448572;28;20234;-78
2021/12/30 01:20:22;;;;;;;2.23;1.27;;;;;;;12.80;75.65;97595.13;8448276;28;20339;-78
2021/12/30 01:24:25;;;;;;;1.20;1.10;;;;;;;12.90;75.46;97598.00;8448074;28;20237;-78
2021/12/30 01:28:30;;;;;;;1.43;1.10;;;;;;;12.87;75.20;97606.84;8448584;28;20230;-78
2021/12/30 01:32:33;;;;;;;1.30;1.20;;;;;;;12.80;75.48;97610.72;8448090;28;20230;-77
2021/12/30 01:36:36;;;;;;;2.33;0.90;;;;;;;12.89;75.17;97615.38;8447778;28;20230;-78
2021/12/30 01:40:40;;;;;;;1.10;1.00;;;;;;;12.95;74.98;97641.94;8447681;28;20264;-78
2021/12/30 01:44:46;;;;;;;1.40;1.10;;;;;;;12.87;75.31;97647.56;8449474;28;20561;-76
2021/12/30 01:48:49;;;;;;;1.83;1.10;;;;;;;13.00;74.70;97645.09;8450081;28;20494;-76
2021/12/30 01:52:52;;;;;;;2.17;1.10;;;;;;;12.95;74.50;97644.53;8448781;28;20271;-76
2021/12/30 01:57:00;;;;;;;2.20;1.00;;;;;;;12.99;74.23;97649.44;8462932;28;20240;-76
2021/12/30 02:01:05;;;;;;;1.10;0.90;;;;;;;12.97;74.06;97666.06;8472779;28;20229;-76
2021/12/30 02:05:09;;;;;;;1.33;1.00;;;;;;;12.97;74.37;97677.31;8430252;28;20238;-76
2021/12/30 02:09:15;;;;;;;2.90;0.90;;;;;;;12.98;73.95;97678.13;8430656;28;20545;-77
2021/12/30 02:13:20;;;;;;;0.87;0.77;;;;;;;13.01;73.76;97678.78;8430428;28;20238;-76
2021/12/30 02:17:24;;;;;;;1.67;1.07;;;;;;;12.77;74.20;97688.00;8430474;28;20230;-78
2021/12/30 02:21:28;;;;;;;1.53;0.90;;;;;;;12.94;73.80;97690.47;8430526;28;20242;-78
2021/12/30 02:25:32;;;;;;;1.20;0.90;;;;;;;12.90;73.74;97696.78;8430476;28;20230;-77
2021/12/30 02:29:35;;;;;;;1.90;1.00;;;;;;;12.91;73.27;97725.28;8430251;28;20238;-77
2021/12/30 02:33:38;;;;;;;1.97;1.07;;;;;;;12.91;73.39;97727.03;8430239;28;20536;-77
2021/12/30 02:37:43;;;;;;;2.00;0.90;;;;;;;12.98;73.03;97717.13;8430124;28;20570;-78
2021/12/30 02:41:45;;;;;;;2.17;1.00;;;;;;;12.95;73.46;97727.72;8429763;28;20241;-77
2021/12/30 02:45:48;;;;;;;2.60;1.03;;;;;;;13.14;72.35;97732.69;8429757;28;20238;-77
2021/12/30 02:49:52;;;;;;;1.77;0.97;;;;;;;12.99;72.73;97737.81;8429833;28;20245;-77
2021/12/30 02:53:56;;;;;;;2.23;1.00;;;;;;;12.85;72.91;97740.38;8429820;28;20252;-77
2021/12/30 02:57:59;;;;;;;3.03;1.23;;;;;;;12.95;72.49;97738.94;8438210;28;20275;-77
2021/12/30 03:02:02;;;;;;;1.43;0.90;;;;;;;12.97;72.51;97744.88;8446370;28;20555;-77
2021/12/30 03:06:07;;;;;;;2.43;1.00;;;;;;;12.98;72.00;97758.72;8446244;28;20239;-78
2021/12/30 03:10:16;;;;;;;3.00;1.03;;;;;;;13.04;72.26;97754.00;8451009;28;20230;-79
2021/12/30 03:14:22;;;;;;;3.13;1.10;;;;;;;13.01;72.21;97758.53;8438419;28;20240;-74
2021/12/30 03:18:25;;;;;;;1.80;0.97;;;;;;;12.97;72.11;97765.66;8418893;28;20242;-75
2021/12/30 03:22:28;;;;;;;3.23;1.20;;;;;;;13.08;71.79;97783.25;8418738;28;20419;-75
2021/12/30 03:26:33;;;;;;;3.50;1.00;;;;;;;13.07;71.94;97781.56;8418917;28;20230;-75
2021/12/30 03:30:36;;;;;;;2.60;1.00;;;;;;;13.07;71.66;97802.38;8418555;28;20249;-74
2021/12/30 03:34:39;;;;;;;3.83;1.23;;;;;;;12.95;71.79;97818.69;8418750;28;20241;-75
2021/12/30 03:38:44;;;;;;;1.60;1.20;;;;;;;13.30;70.81;97811.47;8448721;28;20237;-75
2021/12/30 03:42:49;;;;;;;1.13;0.97;;;;;;;13.13;72.09;97815.00;8452247;28;20521;-74
2021/12/30 03:46:52;;;;;;;1.87;1.20;;;;;;;13.27;70.65;97829.84;8452212;28;20230;-74
2021/12/30 03:50:55;;;;;;;2.30;1.10;;;;;;;13.25;71.41;97837.72;8452305;28;20579;-75
2021/12/30 03:54:58;;;;;;;1.07;1.00;;;;;;;13.34;70.61;97841.59;8451816;28;20230;-75
2021/12/30 03:59:04;;;;;;;2.07;1.20;;;;;;;13.39;70.93;97854.34;8451927;28;20528;-75
2021/12/30 04:03:07;;;;;;;3.47;1.33;;;;;;;13.34;70.91;97857.19;8459097;28;20227;-75
2021/12/30 04:07:10;;;;;;;3.53;1.50;;;;;;;13.31;70.83;97865.19;8450952;28;20234;-75
2021/12/30 04:11:13;;;;;;;3.10;1.60;;;;;;;13.26;70.93;97856.75;8450415;28;20238;-74
2021/12/30 04:15:18;;;;;;;2.53;1.30;;;;;;;13.33;70.52;97847.72;8450964;28;20533;-73
2021/12/30 04:19:21;;;;;;;3.43;1.23;;;;;;;13.27;70.41;97861.06;8448881;28;20230;-73
2021/12/30 04:23:25;;;;;;;2.60;1.17;;;;;;;13.38;69.60;97871.69;8450309;28;20545;-73
2021/12/30 04:27:28;;;;;;;2.40;1.20;;;;;;;13.41;69.45;97861.13;8450198;28;20258;-73
2021/12/30 04:31:33;;;;;;;3.03;1.23;;;;;;;13.30;69.82;97864.31;8450409;28;20234;-72
2021/12/30 04:35:36;;;;;;;3.63;1.30;;;;;;;13.44;68.76;97875.69;8449950;28;20234;-73
2021/12/30 04:39:39;;;;;;;2.67;1.20;;;;;;;13.46;68.82;97879.06;8449786;28;20253;-73
2021/12/30 04:43:42;;;;;;;3.30;0.90;;;;;;;13.53;68.63;97897.75;8450118;28;20240;-73
2021/12/30 04:47:47;;;;;;;2.10;1.10;;;;;;;13.50;68.59;97888.38;8450007;28;20234;-73
2021/12/30 04:51:50;;;;;;;3.17;1.20;;;;;;;13.54;68.81;97899.44;8449603;28;20536;-74
2021/12/30 04:55:53;;;;;;;1.83;1.00;;;;;;;13.53;68.51;97913.38;8449626;28;20240;-73
2021/12/30 04:59:56;;;;;;;1.93;0.90;;;;;;;13.52;68.79;97919.50;8449461;28;20335;-73
2021/12/30 05:04:00;;;;;;;2.07;0.97;;;;;;;13.50;68.61;97914.41;8449121;28;20234;-73
2021/12/30 05:08:04;;;;;;;1.70;0.90;;;;;;;13.56;68.54;97926.22;8449306;28;20252;-73
2021/12/30 05:12:08;;;;;;;3.67;1.33;;;;;;;13.42;69.31;97921.78;8448596;28;20232;-74
2021/12/30 05:16:10;;;;;;;5.47;1.40;;;;;;;13.50;68.85;97927.41;8448729;28;20234;-73
2021/12/30 05:20:16;;;;;;;3.43;1.40;;;;;;;13.56;68.83;97928.81;8448845;28;20237;-73
2021/12/30 05:24:19;;;;;;;3.20;1.30;;;;;;;13.54;68.73;97920.25;8448351;28;20237;-73
2021/12/30 05:28:21;;;;;;;3.43;1.23;;;;;;;13.52;68.73;97922.94;8448514;28;20567;-73
2021/12/30 05:32:24;;;;;;;4.43;1.63;;;;;;;13.58;68.57;97932.16;8448155;28;20241;-74
2021/12/30 05:36:29;;;;;;;5.87;1.80;;;;;;;13.55;68.47;97940.97;8448044;28;20233;-73
2021/12/30 05:40:33;;;;;;;7.23;1.50;;;;;;;13.51;68.73;97949.88;8448118;28;20238;-73
2021/12/30 05:44:36;;;;;;;3.73;1.57;;;;;;;13.47;68.95;97949.22;8447873;28;20449;-73
2021/12/30 05:48:39;;;;;;;5.67;1.60;;;;;;;13.45;68.66;97963.22;8447914;28;20432;-73
2021/12/30 05:52:43;;;;;;;5.00;1.50;;;;;;;13.49;68.21;97973.38;8447661;28;20245;-73
2021/12/30 05:56:46;;;;;;;6.70;1.63;;;;;;;13.48;68.38;97995.13;8447620;28;20234;-73
2021/12/30 06:00:49;;;;;;;5.57;1.70;;;;;;;13.45;68.33;97994.44;8447550;28;20230;-73
2021/12/30 06:04:52;;;;;;;6.60;1.90;;;;;;;13.54;68.12;97991.34;8447555;28;20234;-73
2021/12/30 06:08:57;;;;;;;6.37;1.90;;;;;;;13.48;67.89;97989.09;8447556;28;20541;-72
2021/12/30 06:12:59;;;;;;;7.83;1.90;;;;;;;13.55;67.96;97994.78;8447461;28;20424;-73
2021/12/30 06:17:03;;;;;;;5.90;1.90;;;;;;;13.48;67.94;97994.28;8447155;28;20237;-73
2021/12/30 06:21:07;;;;;;;5.40;2.00;;;;;;;13.54;67.52;97995.72;8447120;28;20230;-73
2021/12/30 06:25:12;;;;;;;6.93;2.17;;;;;;;13.58;67.34;97992.00;8446542;28;20509;-74
2021/12/30 06:29:15;;;;;;;6.13;1.83;;;;;;;13.58;67.42;97990.25;8446951;28;20297;-73
2021/12/30 06:33:19;;;;;;;7.97;1.83;;;;;;;13.66;67.35;97992.41;8446861;28;20233;-74
2021/12/30 06:37:22;;;;;;;6.67;1.97;;;;;;;13.55;67.46;97994.78;8446929;28;20236;-73
2021/12/30 06:41:26;;;;;;;8.30;2.40;;;;;;;13.64;67.63;97981.25;8446668;28;20559;-73
2021/12/30 06:45:29;;;;;;;5.10;1.83;;;;;;;13.70;67.79;97986.09;8452303;28;20347;-73
2021/12/30 06:49:36;;;;;;;7.33;1.90;;;;;;;13.68;67.93;97980.97;8453347;28;20229;-73
2021/12/30 06:53:39;;;;;;;8.43;2.30;;;;;;;13.57;68.50;97985.13;8453761;28;20543;-73
2021/12/30 06:57:43;;;;;;;7.67;2.10;;;;;;;13.60;69.25;98000.56;8453177;28;20229;-73
2021/12/30 07:01:46;;;;;;;5.30;2.07;;;;;;;13.68;68.47;97996.59;8452971;28;20238;-73
2021/12/30 07:05:51;;;;;;;7.00;1.83;;;;;;;13.62;68.91;98003.91;8452956;28;20557;-73
2021/12/30 07:09:54;;;;;;;6.30;2.17;;;;;;;13.69;69.18;98010.47;8453337;28;20375;-72
2021/12/30 07:13:59;;;;;;;9.27;2.67;;;;;;;13.67;69.54;98023.56;8452987;28;20413;-73
2021/12/30 07:18:02;;;;;;;7.73;2.60;;;;;;;13.53;71.15;98026.06;8452346;28;20226;-73
2021/12/30 07:22:05;;;;;;;5.20;2.10;;;;;;;13.71;70.17;98032.03;8452117;28;20568;-73
2021/12/30 07:26:28;;;;;;;9.33;2.70;;;;;;;13.76;70.10;98034.38;8451974;28;20225;-73
2021/12/30 07:30:32;;;;;;;6.47;2.57;;;;;;;13.87;70.66;98035.44;8452098;28;20238;-73
2021/12/30 07:34:35;;;;;;;6.17;2.53;;;;;;;14.11;69.55;98036.72;8452095;28;20241;-73
2021/12/30 07:38:39;;;;;;;7.00;3.97;;;;;;;13.85;70.08;98042.50;8452164;28;20230;-72
2021/12/30 07:42:42;;;;;;;6.67;2.60;;;;;;;13.68;71.31;98038.22;8452722;28;20540;-73
2021/12/30 07:46:46;;;;;;;8.07;2.73;;;;;;;13.61;71.80;98041.25;8456722;28;20238;-73
2021/12/30 07:50:50;;;;;;;5.90;2.30;;;;;;;13.78;71.51;98051.56;8467152;28;20444;-73
2021/12/30 07:54:55;;;;;;;5.40;2.40;;;;;;;13.63;72.36;98068.91;8466836;28;20421;-72
2021/12/30 07:58:58;;;;;;;6.53;2.60;;;;;;;13.66;72.62;98060.06;8468579;28;20222;-72
2021/12/30 08:03:03;;;;;;;6.53;2.20;;;;;;;13.68;72.97;98037.41;8469459;28;20278;-72
2021/12/30 08:07:06;;;;;;;5.13;2.30;;;;;;;13.66;73.63;98050.50;8466693;28;20237;-72
2021/12/30 08:11:09;;;;;;;3.17;2.10;;;;;;;13.71;74.00;98042.44;8441736;28;20518;-73
2021/12/30 08:15:13;;;;;;;4.60;2.03;;;;;;;13.70;74.15;98043.34;8450860;28;20240;-73
2021/12/30 08:19:17;;;;;;;3.07;1.80;;;;;;;13.74;74.26;98050.06;8450892;28;20236;-72
2021/12/30 08:23:21;;;;;;;2.80;1.47;;;;;;;13.85;74.76;98052.06;8450572;28;20282;-73
2021/12/30 08:27:24;;;;;;;2.37;1.20;;;;;;;13.85;74.55;98052.06;8450232;28;20241;-72
2021/12/30 08:31:27;;;;;;;1.50;1.00;;;;;;;13.88;74.95;98054.53;8450846;28;20423;-73
2021/12/30 08:35:33;;;;;;;1.20;0.77;;;;;;;13.82;75.85;98050.50;8450500;28;20298;-72
2021/12/30 08:39:36;;;;;;;4.50;0.90;;;;;;;13.94;75.07;98048.97;8450013;28;20533;-73
2021/12/30 08:43:39;;;;;;;1.80;0.73;;;;;;;14.03;74.90;98051.03;8450088;28;20234;-72
2021/12/30 08:47:43;;;;;;;2.20;0.70;;;;;;;13.99;75.89;98049.53;8449679;28;20391;-72
2021/12/30 08:51:47;;;;;;;0.70;0.70;;;;;;;14.05;75.99;98054.41;8450159;28;20234;-72
2021/12/30 08:55:50;;;;;;;1.97;1.50;;;;;;;14.04;75.81;98054.47;8449014;28;20230;-72
2021/12/30 08:59:53;;;;;;;1.63;1.20;;;;;;;14.11;75.72;98055.81;8449091;28;20234;-72
2021/12/30 09:03:56;;;;;;;0.97;0.70;;;;;;;14.16;75.91;98058.97;8448868;28;20238;-72
2021/12/30 09:08:00;;;;;;;1.27;0.50;;;;;;;14.06;76.64;98061.25;8448293;28;20234;-72
2021/12/30 09:12:06;;;;;;;1.10;0.50;;;;;;;14.14;76.82;98058.22;8448941;28;20556;-72
2021/12/30 09:16:09;;;;;;;1.17;0.50;;;;;;;14.18;76.59;98064.94;8448272;28;20222;-72
2021/12/30 09:20:13;;;;;;;0.57;0.40;;;;;;;14.30;76.09;98063.41;8448746;28;20234;-72
2021/12/30 09:24:18;;;;;;;1.77;0.63;;;;;;;14.19;77.01;98066.63;8448362;28;20234;-72
2021/12/30 09:28:21;;;;;;;0.60;0.50;;;;;;;14.14;77.53;98071.25;8447773;28;20234;-72
2021/12/30 09:32:25;;;;;;;0.90;0.43;;;;;;;14.18;77.25;98070.13;8442352;28;20596;-73
2021/12/30 09:36:30;;;;;;;0.90;0.60;;;;;;;14.19;77.43;98073.59;8454568;28;20242;-73
2021/12/30 09:40:34;;;;;;;1.40;0.70;;;;;;;14.13;77.63;98093.03;8465342;28;20229;-73
2021/12/30 09:44:37;;;;;;;1.80;0.80;;;;;;;14.17;77.56;98091.09;8478236;28;20233;-73
2021/12/30 09:48:40;;;;;;;1.60;1.10;;;;;;;14.15;78.28;98093.75;8481244;28;20236;-73
2021/12/30 09:52:43;;;;;;;1.10;1.00;;;;;;;14.23;77.48;98101.97;8481843;28;20238;-72
2021/12/30 09:56:47;;;;;;;1.60;1.30;;;;;;;14.27;77.99;98092.22;8474196;28;20221;-73
2021/12/30 10:00:51;;;;;;;2.40;1.40;;;;;;;14.31;77.56;98098.94;8448276;28;20226;-73
2021/12/30 10:05:07;;;;;;;1.17;0.90;;;;;;;14.39;77.10;98101.09;8447351;28;20234;-73
2021/12/30 10:09:12;;;;;;;1.03;0.90;;;;;;;14.47;76.85;98102.34;8480721;28;20217;-73
2021/12/30 10:13:20;;;;;;;1.47;0.60;;;;;;;14.39;77.38;98103.69;8481004;28;20233;-73
2021/12/30 10:17:24;;;;;;;1.83;0.90;;;;;;;14.35;77.58;98116.06;8480944;28;20248;-73
2021/12/30 10:21:29;;;;;;;0.90;0.70;;;;;;;14.45;76.68;98111.19;8481007;28;20241;-73
2021/12/30 10:25:33;;;;;;;0.93;0.60;;;;;;;14.54;76.53;98104.59;8480677;28;20245;-73
2021/12/30 10:29:47;;;;;;;2.20;0.80;;;;;;;14.57;76.24;98105.28;8480384;28;20244;-73
2021/12/30 10:33:53;;;;;;;2.53;0.70;;;;;;;14.52;77.03;98107.28;8480703;28;20233;-73
2021/12/30 10:38:04;;;;;;;1.33;0.50;;;;;;;14.69;76.27;98118.53;8480694;28;20241;-73
2021/12/30 10:42:21;;;;;;;2.03;0.70;;;;;;;14.64;75.98;98121.38;8446385;28;20233;-75
2021/12/30 10:46:30;;;;;;;0.60;0.60;;;;;;;14.64;76.37;98121.38;8446692;28;20563;-73
2021/12/30 10:50:35;;;;;;;0.77;0.50;;;;;;;14.70;75.65;98117.56;8446856;28;20528;-73
2021/12/30 10:54:39;;;;;;;1.53;0.60;;;;;;;14.75;75.64;98118.16;8446486;28;20230;-73
2021/12/30 10:58:43;;;;;;;0.93;0.80;;;;;;;14.60;76.38;98119.88;8446493;28;20303;-73
2021/12/30 11:02:48;;;;;;;0.50;0.50;;;;;;;14.75;76.08;98118.97;8446148;28;20233;-73
2021/12/30 11:06:55;;;;;;;1.90;0.70;;;;;;;14.73;75.94;98126.06;8445807;28;20234;-72
2021/12/30 11:10:58;;;;;;;1.10;0.60;;;;;;;14.79;75.89;98130.06;8461149;28;20222;-73
2021/12/30 11:15:05;;;;;;;2.77;0.70;;;;;;;14.88;75.37;98126.09;8462374;28;20226;-73
2021/12/30 11:19:10;;;;;;;1.33;0.60;;;;;;;14.89;74.94;98120.78;8462184;28;20394;-74
2021/12/30 11:23:15;;;;;;;0.70;0.70;;;;;;;14.94;74.51;98129.16;8457722;28;20237;-73
2021/12/30 11:27:19;;;;;;;0.73;0.73;;;;;;;15.02;75.05;98123.50;8462397;28;20241;-73
2021/12/30 11:31:22;;;;;;;1.50;0.80;;;;;;;14.84;75.13;98128.88;8483258;28;20241;-73
2021/12/30 11:35:28;;;;;;;2.57;2.30;;;;;;;14.95;74.39;98122.19;8465296;28;20230;-73
2021/12/30 11:39:31;;;;;;;2.40;2.20;;;;;;;15.05;74.10;98112.88;8468987;28;20516;-73
2021/12/30 11:43:42;;;;;;;1.90;1.50;;;;;;;14.99;74.09;98111.47;8469705;28;20555;-73
2021/12/30 11:47:45;;;;;;;3.97;3.57;;;;;;;14.96;74.69;98116.03;8452716;28;20263;-73
2021/12/30 11:51:52;;;;;;;3.50;3.20;;;;;;;15.10;74.28;98121.28;8458713;28;20245;-73
2021/12/30 11:55:58;;;;;;;6.47;5.87;;;;;;;15.07;73.98;98118.00;8458845;28;20426;-73
2021/12/30 12:00:35;;;;;;;2.00;1.80;;;;;;;15.17;73.11;98113.91;8463321;28;20221;-73
2021/12/30 12:04:39;;;;;;;2.50;1.70;;;;;;;15.03;73.89;98105.16;8446300;28;20499;-73
2021/12/30 12:08:45;;;;;;;1.00;0.90;;;;;;;15.16;73.84;98105.25;8475511;28;20426;-73
2021/12/30 12:12:48;;;;;;;0.97;0.80;;;;;;;15.18;73.55;98110.38;8475346;28;20229;-73
2021/12/30 12:16:58;;;;;;;0.87;0.60;;;;;;;15.15;74.09;98103.56;8458166;28;20234;-73
2021/12/30 12:21:05;;;;;;;0.60;0.60;;;;;;;15.17;73.75;98119.13;8451402;28;20230;-73
2021/12/30 12:25:13;;;;;;;3.37;0.80;;;;;;;15.21;73.56;98104.97;8475294;28;20416;-74
2021/12/30 12:29:23;;;;;;;1.90;0.50;;;;;;;15.09;73.83;98111.75;8468063;28;20245;-73
2021/12/30 12:33:28;;;;;;;5.20;1.03;;;;;;;15.85;72.79;98114.97;8450123;28;20234;-72
2021/12/30 12:38:06;;;;;;;5.23;1.00;;;;;;;16.13;70.96;98103.59;8449955;28;20234;-71
2021/12/30 12:42:10;;;;;;;1.37;0.83;;;;;;;16.31;69.97;98097.16;8349294;28;20524;-73
2021/12/30 12:46:13;;;;;;;2.10;0.40;;;;;;;16.40;69.77;98100.97;8449800;28;20396;-74
2021/12/30 12:50:16;;;;;;;0.70;0.40;;;;;;;16.03;70.06;98103.38;8449646;28;20230;-72
2021/12/30 12:54:33;;;;;;;2.00;0.40;;;;;;;16.01;70.48;98106.06;8449824;28;20541;-73
2021/12/30 12:58:40;;;;;;;0.70;0.53;;;;;;;15.82;70.71;98097.72;8449506;28;20234;-73
2021/12/30 13:02:46;;;;;;;0.60;0.50;;;;;;;15.92;70.78;98100.59;8470056;28;20399;-73
2021/12/30 13:06:50;;;;;;;1.33;0.50;;;;;;;15.84;70.67;98106.31;8465749;28;20536;-73
2021/12/30 13:10:52;;;;;;;0.40;0.30;;;;;;;15.72;71.41;98100.03;8455921;28;20234;-73
2021/12/30 13:14:58;;;;;;;2.07;0.57;;;;;;;15.85;71.12;98117.59;8448838;28;20237;-73
2021/12/30 13:19:04;;;;;;;0.57;0.50;;;;;;;15.64;71.80;98124.03;8461664;28;20225;-73
2021/12/30 13:23:08;;;;;;;0.40;0.40;;;;;;;15.54;71.79;98124.72;8468061;28;20244;-74
2021/12/30 13:27:24;;;;;;;0.63;0.40;;;;;;;15.62;71.50;98125.91;8458648;28;20229;-73
2021/12/30 13:31:59;;;;;;;0.80;0.63;;;;;;;15.54;71.54;98130.75;8467112;28;20234;-73
2021/12/30 13:36:13;;;;;;;0.83;0.70;;;;;;;15.49;71.52;98131.97;8452347;28;20226;-72
2021/12/30 13:40:18;;;;;;;0.87;0.70;;;;;;;15.49;72.06;98121.53;8445281;28;20222;-72
2021/12/30 13:44:23;;;;;;;1.43;0.93;;;;;;;15.36;72.89;98126.66;8446677;28;20230;-73
2021/12/30 13:48:30;;;;;;;1.73;0.90;;;;;;;15.36;72.74;98121.44;8446631;28;20233;-72
2021/12/30 13:52:37;;;;;;;0.63;0.57;;;;;;;15.25;72.86;98133.41;8447060;28;20234;-72
2021/12/30 13:56:43;;;;;;;1.50;0.67;;;;;;;15.27;72.60;98116.78;8447678;28;20234;-72
2021/12/30 14:00:49;;;;;;;1.07;0.80;;;;;;;15.43;72.43;98128.81;8447713;28;20234;-72
2021/12/30 14:05:04;;;;;;;0.73;0.73;;;;;;;15.42;71.81;98128.91;8447209;28;20571;-72
2021/12/30 14:09:12;;;;;;;1.93;0.90;;;;;;;15.50;72.22;98133.63;8444021;28;20226;-73
2021/12/30 14:13:15;;;;;;;1.00;0.67;;;;;;;15.46;72.34;98140.84;8439600;28;20224;-74
2021/12/30 14:17:18;;;;;;;0.70;0.70;;;;;;;15.37;72.51;98141.41;8477663;28;20225;-73
2021/12/30 14:21:24;;;;;;;0.90;0.70;;;;;;;15.51;72.26;98148.38;8453470;28;20237;-73
2021/12/30 14:25:34;;;;;;;1.00;0.80;;;;;;;15.48;71.70;98143.34;8446870;28;20253;-72
2021/12/30 14:29:37;;;;;;;1.57;0.70;;;;;;;15.51;71.72;98149.22;8446878;28;20245;-72
2021/12/30 14:33:41;;;;;;;3.10;2.27;;;;;;;15.48;71.91;98153.78;8446684;28;20533;-72
2021/12/30 14:37:46;;;;;;;3.00;1.80;;;;;;;15.44;72.02;98163.59;8460190;28;20221;-71
2021/12/30 14:41:49;;;;;;;3.87;2.30;;;;;;;15.48;71.85;98157.25;8467849;28;20235;-71
2021/12/30 14:45:52;;;;;;;1.23;0.80;;;;;;;15.47;71.61;98158.16;8480281;28;20233;-64
2021/12/30 14:50:02;;;;;;;1.40;0.70;;;;;;;15.49;71.30;98161.53;8465263;28;20418;-64
2021/12/30 14:54:08;;;;;;;0.60;0.50;;;;;;;15.46;71.44;98161.72;8478805;28;20244;-63
2021/12/30 14:58:14;;;;;;;1.07;0.60;;;;;;;15.44;71.42;98166.19;8479989;28;20230;-64
2021/12/30 15:02:18;;;;;;;0.70;0.63;;;;;;;15.35;71.15;98169.38;8479879;28;20229;-63
2021/12/30 15:06:23;;;;;;;1.10;0.80;;;;;;;15.46;71.34;98166.94;8483508;28;20233;-64
2021/12/30 15:10:28;;;;;;;0.60;0.60;;;;;;;15.39;71.14;98174.28;8468638;28;20222;-64
2021/12/30 15:14:31;;;;;;;0.63;0.63;;;;;;;15.35;71.62;98174.59;8468689;28;20236;-64
2021/12/30 15:18:34;;;;;;;0.53;0.50;;;;;;;15.40;71.30;98183.81;8452272;28;20230;-64
2021/12/30 15:22:38;;;;;;;0.70;0.60;;;;;;;15.44;71.58;98185.31;8452331;28;20568;-64
2021/12/30 15:26:42;;;;;;;4.57;0.80;;;;;;;15.36;71.60;98192.72;8452290;28;20544;-64
2021/12/30 15:30:45;;;;;;;1.30;1.20;;;;;;;15.41;71.45;98184.66;8452257;28;20234;-64
2021/12/30 15:34:49;;;;;;;1.70;1.00;;;;;;;15.45;71.29;98196.56;8451980;28;20261;-63
2021/12/30 15:38:52;;;;;;;1.40;0.63;;;;;;;15.39;72.07;98195.16;8451863;28;20237;-63
2021/12/30 15:42:57;;;;;;;0.53;0.50;;;;;;;15.35;72.08;98201.50;8452025;28;20424;-64
2021/12/30 15:47:00;;;;;;;1.67;0.60;;;;;;;15.26;72.48;98204.66;8451884;28;20237;-64
2021/12/30 15:51:03;;;;;;;1.57;0.70;;;;;;;15.34;72.14;98204.19;8455251;28;20445;-64
2021/12/30 15:55:08;;;;;;;0.53;0.50;;;;;;;15.28;72.50;98201.97;8467099;28;20232;-64
2021/12/30 15:59:13;;;;;;;0.87;0.63;;;;;;;15.39;72.49;98210.00;8478728;28;20233;-64
2021/12/30 16:03:22;;;;;;;0.83;0.70;;;;;;;15.44;71.85;98216.63;8477824;28;20271;-64
2021/12/30 16:07:24;;;;;;;1.33;0.60;;;;;;;15.21;72.16;98209.31;8481753;28;20234;-64
2021/12/30 16:11:28;;;;;;;2.00;0.80;;;;;;;15.18;71.75;98214.72;8451043;28;20520;-64
2021/12/30 16:15:32;;;;;;;4.10;3.70;;;;;;;15.18;71.71;98212.94;8459612;28;20233;-64
2021/12/30 16:19:35;;;;;;;1.70;1.30;;;;;;;15.22;71.81;98222.25;8451933;28;20226;-64
2021/12/30 16:23:38;;;;;;;3.63;2.47;;;;;;;15.17;72.67;98233.91;8477778;28;20226;-64
2021/12/30 16:27:42;;;;;;;1.20;0.93;;;;;;;15.12;72.93;98225.53;8480689;28;20237;-62
2021/12/30 16:31:47;;;;;;;1.37;0.70;;;;;;;15.14;72.44;98234.09;8484128;28;20230;-62
2021/12/30 16:35:50;;;;;;;0.90;0.60;;;;;;;15.25;71.87;98237.75;8484314;28;20384;-61
2021/12/30 16:39:53;;;;;;;2.33;0.63;;;;;;;15.20;72.02;98225.91;8483623;28;20237;-61
2021/12/30 16:43:56;;;;;;;1.33;0.70;;;;;;;15.08;71.67;98232.69;8483240;28;20232;-62
2021/12/30 16:48:01;;;;;;;1.33;0.60;;;;;;;15.15;71.82;98254.03;8482703;28;20237;-62
2021/12/30 16:52:05;;;;;;;0.70;0.70;;;;;;;15.14;71.92;98258.41;8482372;28;20232;-62
2021/12/30 16:56:08;;;;;;;1.20;1.10;;;;;;;15.04;72.11;98268.53;8473528;28;20225;-65
2021/12/30 17:00:13;;;;;;;1.00;0.60;;;;;;;15.05;72.64;98267.59;8456760;28;20238;-65
2021/12/30 17:04:17;;;;;;;1.17;0.90;;;;;;;15.12;71.82;98278.53;8415711;28;20239;-65
2021/12/30 17:08:26;;;;;;;0.60;0.60;;;;;;;15.11;72.10;98283.81;8415758;28;20303;-65
2021/12/30 17:12:29;;;;;;;0.80;0.70;;;;;;;15.11;72.32;98281.22;8415575;28;20253;-65
2021/12/30 17:16:32;;;;;;;1.37;1.20;;;;;;;15.11;71.77;98287.25;8415235;28;20242;-64
2021/12/30 17:20:37;;;;;;;3.60;2.30;;;;;;;15.14;71.61;98288.88;8415752;28;20422;-65
2021/12/30 17:24:40;;;;;;;1.60;1.50;;;;;;;15.09;71.53;98296.94;8415098;28;20242;-65
2021/12/30 17:28:43;;;;;;;2.10;1.57;;;;;;;15.11;71.32;98287.25;8414494;28;20242;-65
2021/12/30 17:32:47;;;;;;;3.70;1.30;;;;;;;15.01;71.03;98284.34;8414960;28;20323;-64
2021/12/30 17:36:51;;;;;;;1.10;1.00;;;;;;;15.13;71.08;98293.22;8415114;28;20238;-64
2021/12/30 17:40:54;;;;;;;1.20;1.03;;;;;;;15.16;70.47;98300.91;8416926;28;20234;-64
2021/12/30 17:44:57;;;;;;;2.00;1.20;;;;;;;15.05;70.77;98298.06;8448201;28;20230;-65
2021/12/30 17:49:00;;;;;;;1.80;1.40;;;;;;;15.09;69.86;98306.56;8447915;28;20236;-65
2021/12/30 17:53:06;;;;;;;2.20;1.50;;;;;;;15.07;69.87;98304.03;8447668;28;20230;-65
2021/12/30 17:57:09;;;;;;;2.10;1.37;;;;;;;15.05;69.82;98301.50;8447852;28;20535;-65
2021/12/30 18:01:12;;;;;;;1.77;0.93;;;;;;;15.04;69.75;98302.44;8447346;28;20238;-65
2021/12/30 18:05:15;;;;;;;4.37;1.37;;;;;;;15.03;69.74;98310.34;8447338;28;20225;-65
2021/12/30 18:09:19;;;;;;;3.53;3.20;;;;;;;14.98;70.07;98313.22;8454113;28;20233;-65
2021/12/30 18:13:23;;;;;;;1.90;1.30;;;;;;;14.90;69.68;98325.00;8480921;28;20233;-65
2021/12/30 18:17:26;;;;;;;2.53;1.20;;;;;;;14.99;69.51;98332.31;8480947;28;20240;-65
2021/12/30 18:21:29;;;;;;;4.43;1.10;;;;;;;14.94;69.30;98329.94;8466282;28;20230;-65
2021/12/30 18:25:34;;;;;;;2.00;1.00;;;;;;;14.85;69.27;98338.31;8446853;28;20279;-65
2021/12/30 18:29:37;;;;;;;1.93;1.13;;;;;;;14.88;69.21;98338.13;8446893;28;20233;-65
2021/12/30 18:33:40;;;;;;;2.63;2.20;;;;;;;14.96;68.79;98345.53;8446927;28;20237;-65
2021/12/30 18:37:43;;;;;;;3.83;1.70;;;;;;;14.94;68.95;98337.78;8446936;28;20230;-65
2021/12/30 18:41:48;;;;;;;4.30;1.33;;;;;;;14.84;68.60;98349.66;8448350;28;20230;-65
2021/12/30 18:45:51;;;;;;;2.60;1.30;;;;;;;14.98;68.32;98354.97;8449668;28;20249;-65
2021/12/30 18:49:55;;;;;;;2.03;1.20;;;;;;;14.93;68.73;98350.94;8454311;28;20237;-65
2021/12/30 18:53:58;;;;;;;1.60;1.23;;;;;;;14.86;69.24;98353.84;8461819;28;20233;-65
2021/12/30 18:58:03;;;;;;;1.87;1.20;;;;;;;14.92;68.78;98350.06;8453592;28;20536;-63
2021/12/30 19:02:06;;;;;;;3.57;1.20;;;;;;;14.95;68.52;98362.09;8453615;28;20244;-62
2021/12/30 19:06:11;;;;;;;1.13;1.00;;;;;;;14.92;68.50;98360.50;8452524;28;20340;-63
2021/12/30 19:10:15;;;;;;;2.70;1.53;;;;;;;14.89;68.03;98363.28;8452903;28;20230;-62
2021/12/30 19:14:19;;;;;;;2.40;1.20;;;;;;;14.88;68.45;98366.81;8452600;28;20301;-63